<?xml version="1.0" encoding="UTF-8" standalone="no" ?>
<gpx xmlns="http://www.topografix.com/GPX/1/1" xmlns:xsi="http://www.w3.org/2001/XMLSchema-instance" xsi:schemaLocation="http://www.topografix.com/GPX/1/1 http://www.topografix.com/GPX/1/1/gpx.xsd" version="1.1" creator="VisuGPX - https://www.visugpx.com">
  <metadata>
    <name>rando salleboeuf 8 km</name>
    <desc><![CDATA[photo de la rando dispo en suivant le lien [url]http://rando.pedestre.33.over-blog.com/2020/01/rando-salleboeuf-11-km.html[/url]
]]></desc>
  </metadata>
  <trk>
    <name><![CDATA[rando salleboeuf 8 km]]></name>
    <trkseg>
      <trkpt lat="44.84271" lon="-0.39556">
        <ele>63</ele>
        <time>2018-05-31T09:49:31Z</time>
      </trkpt>
      <trkpt lat="44.84289" lon="-0.39542">
        <ele>63</ele>
        <time>2018-05-31T09:50:31Z</time>
      </trkpt>
      <trkpt lat="44.84291" lon="-0.3954">
        <ele>63</ele>
        <time>2018-05-31T09:51:31Z</time>
      </trkpt>
      <trkpt lat="44.84297" lon="-0.3956">
        <ele>62</ele>
        <time>2018-05-31T09:52:31Z</time>
      </trkpt>
      <trkpt lat="44.843" lon="-0.39598">
        <ele>60</ele>
        <time>2018-05-31T09:53:31Z</time>
      </trkpt>
      <trkpt lat="44.84304" lon="-0.39631">
        <ele>59</ele>
        <time>2018-05-31T09:54:31Z</time>
      </trkpt>
      <trkpt lat="44.84308" lon="-0.39707">
        <ele>57</ele>
        <time>2018-05-31T09:55:31Z</time>
      </trkpt>
      <trkpt lat="44.84329" lon="-0.3975">
        <ele>57</ele>
        <time>2018-05-31T09:56:31Z</time>
      </trkpt>
      <trkpt lat="44.84333" lon="-0.39761">
        <ele>58</ele>
        <time>2018-05-31T09:57:31Z</time>
      </trkpt>
      <trkpt lat="44.84334" lon="-0.39765">
        <ele>58</ele>
        <time>2018-05-31T09:58:31Z</time>
      </trkpt>
      <trkpt lat="44.84334" lon="-0.39777">
        <ele>58</ele>
        <time>2018-05-31T09:59:31Z</time>
      </trkpt>
      <trkpt lat="44.84335" lon="-0.3978">
        <ele>58</ele>
        <time>2018-05-31T10:00:31Z</time>
      </trkpt>
      <trkpt lat="44.84339" lon="-0.39793">
        <ele>59</ele>
        <time>2018-05-31T10:01:31Z</time>
      </trkpt>
      <trkpt lat="44.8434" lon="-0.39819">
        <ele>60</ele>
        <time>2018-05-31T10:02:31Z</time>
      </trkpt>
      <trkpt lat="44.84339" lon="-0.39852">
        <ele>61</ele>
        <time>2018-05-31T10:03:31Z</time>
      </trkpt>
      <trkpt lat="44.84338" lon="-0.39885">
        <ele>62</ele>
        <time>2018-05-31T10:04:31Z</time>
      </trkpt>
      <trkpt lat="44.84338" lon="-0.39911">
        <ele>63</ele>
        <time>2018-05-31T10:05:31Z</time>
      </trkpt>
      <trkpt lat="44.84338" lon="-0.39927">
        <ele>64</ele>
        <time>2018-05-31T10:06:31Z</time>
      </trkpt>
      <trkpt lat="44.84337" lon="-0.39944">
        <ele>65</ele>
        <time>2018-05-31T10:07:31Z</time>
      </trkpt>
      <trkpt lat="44.84337" lon="-0.39963">
        <ele>66</ele>
        <time>2018-05-31T10:08:31Z</time>
      </trkpt>
      <trkpt lat="44.84337" lon="-0.39981">
        <ele>67</ele>
        <time>2018-05-31T10:09:31Z</time>
      </trkpt>
      <trkpt lat="44.84337" lon="-0.39984">
        <ele>67</ele>
        <time>2018-05-31T10:10:31Z</time>
      </trkpt>
      <trkpt lat="44.84337" lon="-0.39989">
        <ele>67</ele>
        <time>2018-05-31T10:11:31Z</time>
      </trkpt>
      <trkpt lat="44.84338" lon="-0.39998">
        <ele>68</ele>
        <time>2018-05-31T10:12:31Z</time>
      </trkpt>
      <trkpt lat="44.84342" lon="-0.40066">
        <ele>70</ele>
        <time>2018-05-31T10:13:31Z</time>
      </trkpt>
      <trkpt lat="44.84358" lon="-0.40082">
        <ele>70</ele>
        <time>2018-05-31T10:14:31Z</time>
      </trkpt>
      <trkpt lat="44.84415" lon="-0.40084">
        <ele>68</ele>
        <time>2018-05-31T10:15:31Z</time>
      </trkpt>
      <trkpt lat="44.84472" lon="-0.40082">
        <ele>69</ele>
        <time>2018-05-31T10:16:31Z</time>
      </trkpt>
      <trkpt lat="44.84487" lon="-0.40085">
        <ele>69</ele>
        <time>2018-05-31T10:17:31Z</time>
      </trkpt>
      <trkpt lat="44.84491" lon="-0.40101">
        <ele>69</ele>
        <time>2018-05-31T10:18:31Z</time>
      </trkpt>
      <trkpt lat="44.84489" lon="-0.40104">
        <ele>69</ele>
        <time>2018-05-31T10:19:31Z</time>
      </trkpt>
      <trkpt lat="44.84489" lon="-0.40115">
        <ele>69</ele>
        <time>2018-05-31T10:20:31Z</time>
      </trkpt>
      <trkpt lat="44.84489" lon="-0.40122">
        <ele>70</ele>
        <time>2018-05-31T10:21:31Z</time>
      </trkpt>
      <trkpt lat="44.84487" lon="-0.40173">
        <ele>70</ele>
        <time>2018-05-31T10:22:31Z</time>
      </trkpt>
      <trkpt lat="44.84493" lon="-0.40224">
        <ele>72</ele>
        <time>2018-05-31T10:23:31Z</time>
      </trkpt>
      <trkpt lat="44.84492" lon="-0.40228">
        <ele>72</ele>
        <time>2018-05-31T10:24:31Z</time>
      </trkpt>
      <trkpt lat="44.84483" lon="-0.40233">
        <ele>72</ele>
        <time>2018-05-31T10:25:31Z</time>
      </trkpt>
      <trkpt lat="44.84461" lon="-0.40253">
        <ele>72</ele>
        <time>2018-05-31T10:26:31Z</time>
      </trkpt>
      <trkpt lat="44.84465" lon="-0.40292">
        <ele>69</ele>
        <time>2018-05-31T10:27:31Z</time>
      </trkpt>
      <trkpt lat="44.84466" lon="-0.40301">
        <ele>69</ele>
        <time>2018-05-31T10:28:31Z</time>
      </trkpt>
      <trkpt lat="44.84468" lon="-0.40316">
        <ele>68</ele>
        <time>2018-05-31T10:29:31Z</time>
      </trkpt>
      <trkpt lat="44.8447" lon="-0.40327">
        <ele>67</ele>
        <time>2018-05-31T10:30:31Z</time>
      </trkpt>
      <trkpt lat="44.8447" lon="-0.40338">
        <ele>66</ele>
        <time>2018-05-31T10:31:31Z</time>
      </trkpt>
      <trkpt lat="44.84473" lon="-0.40341">
        <ele>66</ele>
        <time>2018-05-31T10:32:31Z</time>
      </trkpt>
      <trkpt lat="44.84484" lon="-0.40344">
        <ele>66</ele>
        <time>2018-05-31T10:33:31Z</time>
      </trkpt>
      <trkpt lat="44.84498" lon="-0.40349">
        <ele>66</ele>
        <time>2018-05-31T10:34:31Z</time>
      </trkpt>
      <trkpt lat="44.8453" lon="-0.40366">
        <ele>65</ele>
        <time>2018-05-31T10:35:31Z</time>
      </trkpt>
      <trkpt lat="44.84533" lon="-0.4037">
        <ele>65</ele>
        <time>2018-05-31T10:36:31Z</time>
      </trkpt>
      <trkpt lat="44.84536" lon="-0.40385">
        <ele>64</ele>
        <time>2018-05-31T10:37:31Z</time>
      </trkpt>
      <trkpt lat="44.84531" lon="-0.40419">
        <ele>62</ele>
        <time>2018-05-31T10:38:31Z</time>
      </trkpt>
      <trkpt lat="44.84528" lon="-0.40476">
        <ele>62</ele>
        <time>2018-05-31T10:39:31Z</time>
      </trkpt>
      <trkpt lat="44.84528" lon="-0.40526">
        <ele>62</ele>
        <time>2018-05-31T10:40:31Z</time>
      </trkpt>
      <trkpt lat="44.84524" lon="-0.40557">
        <ele>62</ele>
        <time>2018-05-31T10:41:31Z</time>
      </trkpt>
      <trkpt lat="44.84516" lon="-0.40567">
        <ele>62</ele>
        <time>2018-05-31T10:42:31Z</time>
      </trkpt>
      <trkpt lat="44.84506" lon="-0.40579">
        <ele>63</ele>
        <time>2018-05-31T10:43:31Z</time>
      </trkpt>
      <trkpt lat="44.84502" lon="-0.40592">
        <ele>63</ele>
        <time>2018-05-31T10:44:31Z</time>
      </trkpt>
      <trkpt lat="44.84497" lon="-0.4063">
        <ele>64</ele>
        <time>2018-05-31T10:45:31Z</time>
      </trkpt>
      <trkpt lat="44.84496" lon="-0.40649">
        <ele>64</ele>
        <time>2018-05-31T10:46:31Z</time>
      </trkpt>
      <trkpt lat="44.84495" lon="-0.40668">
        <ele>64</ele>
        <time>2018-05-31T10:47:31Z</time>
      </trkpt>
      <trkpt lat="44.84494" lon="-0.40692">
        <ele>65</ele>
        <time>2018-05-31T10:48:31Z</time>
      </trkpt>
      <trkpt lat="44.84496" lon="-0.40724">
        <ele>66</ele>
        <time>2018-05-31T10:49:31Z</time>
      </trkpt>
      <trkpt lat="44.84498" lon="-0.40794">
        <ele>69</ele>
        <time>2018-05-31T10:50:31Z</time>
      </trkpt>
      <trkpt lat="44.84501" lon="-0.40797">
        <ele>69</ele>
        <time>2018-05-31T10:51:31Z</time>
      </trkpt>
      <trkpt lat="44.84517" lon="-0.40798">
        <ele>68</ele>
        <time>2018-05-31T10:52:31Z</time>
      </trkpt>
      <trkpt lat="44.84545" lon="-0.40792">
        <ele>67</ele>
        <time>2018-05-31T10:53:31Z</time>
      </trkpt>
      <trkpt lat="44.84597" lon="-0.40782">
        <ele>66</ele>
        <time>2018-05-31T10:54:31Z</time>
      </trkpt>
      <trkpt lat="44.84625" lon="-0.40778">
        <ele>65</ele>
        <time>2018-05-31T10:55:31Z</time>
      </trkpt>
      <trkpt lat="44.84638" lon="-0.40777">
        <ele>64</ele>
        <time>2018-05-31T10:56:31Z</time>
      </trkpt>
      <trkpt lat="44.84657" lon="-0.40773">
        <ele>63</ele>
        <time>2018-05-31T10:57:31Z</time>
      </trkpt>
      <trkpt lat="44.84663" lon="-0.40771">
        <ele>63</ele>
        <time>2018-05-31T10:58:31Z</time>
      </trkpt>
      <trkpt lat="44.84711" lon="-0.4073">
        <ele>63</ele>
        <time>2018-05-31T10:59:31Z</time>
      </trkpt>
      <trkpt lat="44.84722" lon="-0.40721">
        <ele>63</ele>
        <time>2018-05-31T11:00:31Z</time>
      </trkpt>
      <trkpt lat="44.84772" lon="-0.40679">
        <ele>66</ele>
        <time>2018-05-31T11:01:31Z</time>
      </trkpt>
      <trkpt lat="44.84776" lon="-0.40667">
        <ele>66</ele>
        <time>2018-05-31T11:02:31Z</time>
      </trkpt>
      <trkpt lat="44.8477" lon="-0.40647">
        <ele>65</ele>
        <time>2018-05-31T11:03:31Z</time>
      </trkpt>
      <trkpt lat="44.8478" lon="-0.40615">
        <ele>65</ele>
        <time>2018-05-31T11:04:31Z</time>
      </trkpt>
      <trkpt lat="44.84784" lon="-0.40607">
        <ele>65</ele>
        <time>2018-05-31T11:05:31Z</time>
      </trkpt>
      <trkpt lat="44.84787" lon="-0.40544">
        <ele>64</ele>
        <time>2018-05-31T11:06:31Z</time>
      </trkpt>
      <trkpt lat="44.84784" lon="-0.40511">
        <ele>62</ele>
        <time>2018-05-31T11:07:31Z</time>
      </trkpt>
      <trkpt lat="44.84783" lon="-0.40505">
        <ele>62</ele>
        <time>2018-05-31T11:08:31Z</time>
      </trkpt>
      <trkpt lat="44.84777" lon="-0.40476">
        <ele>62</ele>
        <time>2018-05-31T11:09:31Z</time>
      </trkpt>
      <trkpt lat="44.84776" lon="-0.40453">
        <ele>61</ele>
        <time>2018-05-31T11:10:31Z</time>
      </trkpt>
      <trkpt lat="44.84777" lon="-0.40435">
        <ele>61</ele>
        <time>2018-05-31T11:11:31Z</time>
      </trkpt>
      <trkpt lat="44.84776" lon="-0.40424">
        <ele>61</ele>
        <time>2018-05-31T11:12:31Z</time>
      </trkpt>
      <trkpt lat="44.84777" lon="-0.40394">
        <ele>60</ele>
        <time>2018-05-31T11:13:31Z</time>
      </trkpt>
      <trkpt lat="44.84778" lon="-0.4036">
        <ele>59</ele>
        <time>2018-05-31T11:14:31Z</time>
      </trkpt>
      <trkpt lat="44.84779" lon="-0.40338">
        <ele>58</ele>
        <time>2018-05-31T11:15:31Z</time>
      </trkpt>
      <trkpt lat="44.8478" lon="-0.4033">
        <ele>58</ele>
        <time>2018-05-31T11:16:31Z</time>
      </trkpt>
      <trkpt lat="44.84787" lon="-0.40291">
        <ele>56</ele>
        <time>2018-05-31T11:17:31Z</time>
      </trkpt>
      <trkpt lat="44.84799" lon="-0.40266">
        <ele>56</ele>
        <time>2018-05-31T11:18:31Z</time>
      </trkpt>
      <trkpt lat="44.84807" lon="-0.40255">
        <ele>55</ele>
        <time>2018-05-31T11:19:31Z</time>
      </trkpt>
      <trkpt lat="44.84816" lon="-0.40239">
        <ele>54</ele>
        <time>2018-05-31T11:20:31Z</time>
      </trkpt>
      <trkpt lat="44.8482" lon="-0.40227">
        <ele>54</ele>
        <time>2018-05-31T11:21:31Z</time>
      </trkpt>
      <trkpt lat="44.84841" lon="-0.40171">
        <ele>51</ele>
        <time>2018-05-31T11:22:31Z</time>
      </trkpt>
      <trkpt lat="44.84862" lon="-0.40174">
        <ele>52</ele>
        <time>2018-05-31T11:23:31Z</time>
      </trkpt>
      <trkpt lat="44.8489" lon="-0.40176">
        <ele>53</ele>
        <time>2018-05-31T11:24:31Z</time>
      </trkpt>
      <trkpt lat="44.84915" lon="-0.40177">
        <ele>54</ele>
        <time>2018-05-31T11:25:31Z</time>
      </trkpt>
      <trkpt lat="44.84967" lon="-0.40203">
        <ele>55</ele>
        <time>2018-05-31T11:26:31Z</time>
      </trkpt>
      <trkpt lat="44.84966" lon="-0.40237">
        <ele>56</ele>
        <time>2018-05-31T11:27:31Z</time>
      </trkpt>
      <trkpt lat="44.8496" lon="-0.40277">
        <ele>58</ele>
        <time>2018-05-31T11:28:31Z</time>
      </trkpt>
      <trkpt lat="44.84956" lon="-0.40292">
        <ele>59</ele>
        <time>2018-05-31T11:29:31Z</time>
      </trkpt>
      <trkpt lat="44.8496" lon="-0.40311">
        <ele>60</ele>
        <time>2018-05-31T11:30:31Z</time>
      </trkpt>
      <trkpt lat="44.84963" lon="-0.40331">
        <ele>61</ele>
        <time>2018-05-31T11:31:31Z</time>
      </trkpt>
      <trkpt lat="44.84966" lon="-0.40352">
        <ele>62</ele>
        <time>2018-05-31T11:32:31Z</time>
      </trkpt>
      <trkpt lat="44.84968" lon="-0.40371">
        <ele>63</ele>
        <time>2018-05-31T11:33:31Z</time>
      </trkpt>
      <trkpt lat="44.8497" lon="-0.40391">
        <ele>64</ele>
        <time>2018-05-31T11:34:31Z</time>
      </trkpt>
      <trkpt lat="44.84973" lon="-0.40416">
        <ele>66</ele>
        <time>2018-05-31T11:35:31Z</time>
      </trkpt>
      <trkpt lat="44.84977" lon="-0.40442">
        <ele>66</ele>
        <time>2018-05-31T11:36:31Z</time>
      </trkpt>
      <trkpt lat="44.84981" lon="-0.40462">
        <ele>67</ele>
        <time>2018-05-31T11:37:31Z</time>
      </trkpt>
      <trkpt lat="44.84991" lon="-0.40462">
        <ele>67</ele>
        <time>2018-05-31T11:38:31Z</time>
      </trkpt>
      <trkpt lat="44.85021" lon="-0.40459">
        <ele>67</ele>
        <time>2018-05-31T11:39:31Z</time>
      </trkpt>
      <trkpt lat="44.85022" lon="-0.40437">
        <ele>66</ele>
        <time>2018-05-31T11:40:31Z</time>
      </trkpt>
      <trkpt lat="44.85025" lon="-0.40407">
        <ele>65</ele>
        <time>2018-05-31T11:41:31Z</time>
      </trkpt>
      <trkpt lat="44.8505" lon="-0.40406">
        <ele>64</ele>
        <time>2018-05-31T11:42:31Z</time>
      </trkpt>
      <trkpt lat="44.85075" lon="-0.40404">
        <ele>63</ele>
        <time>2018-05-31T11:43:31Z</time>
      </trkpt>
      <trkpt lat="44.8508" lon="-0.40403">
        <ele>63</ele>
        <time>2018-05-31T11:44:31Z</time>
      </trkpt>
      <trkpt lat="44.85089" lon="-0.40406">
        <ele>63</ele>
        <time>2018-05-31T11:45:31Z</time>
      </trkpt>
      <trkpt lat="44.85115" lon="-0.40437">
        <ele>65</ele>
        <time>2018-05-31T11:46:31Z</time>
      </trkpt>
      <trkpt lat="44.85148" lon="-0.4043">
        <ele>65</ele>
        <time>2018-05-31T11:47:31Z</time>
      </trkpt>
      <trkpt lat="44.85153" lon="-0.40444">
        <ele>65</ele>
        <time>2018-05-31T11:48:31Z</time>
      </trkpt>
      <trkpt lat="44.85169" lon="-0.40442">
        <ele>65</ele>
        <time>2018-05-31T11:49:31Z</time>
      </trkpt>
      <trkpt lat="44.85219" lon="-0.40445">
        <ele>64</ele>
        <time>2018-05-31T11:50:31Z</time>
      </trkpt>
      <trkpt lat="44.85223" lon="-0.4046">
        <ele>64</ele>
        <time>2018-05-31T11:51:31Z</time>
      </trkpt>
      <trkpt lat="44.85227" lon="-0.40464">
        <ele>64</ele>
        <time>2018-05-31T11:52:31Z</time>
      </trkpt>
      <trkpt lat="44.85232" lon="-0.40464">
        <ele>64</ele>
        <time>2018-05-31T11:53:31Z</time>
      </trkpt>
      <trkpt lat="44.85265" lon="-0.40454">
        <ele>64</ele>
        <time>2018-05-31T11:54:31Z</time>
      </trkpt>
      <trkpt lat="44.85299" lon="-0.40444">
        <ele>66</ele>
        <time>2018-05-31T11:55:31Z</time>
      </trkpt>
      <trkpt lat="44.85344" lon="-0.4043">
        <ele>69</ele>
        <time>2018-05-31T11:56:31Z</time>
      </trkpt>
      <trkpt lat="44.85361" lon="-0.40425">
        <ele>70</ele>
        <time>2018-05-31T11:57:31Z</time>
      </trkpt>
      <trkpt lat="44.8539" lon="-0.40414">
        <ele>71</ele>
        <time>2018-05-31T11:58:31Z</time>
      </trkpt>
      <trkpt lat="44.85423" lon="-0.40379">
        <ele>72</ele>
        <time>2018-05-31T11:59:31Z</time>
      </trkpt>
      <trkpt lat="44.85426" lon="-0.40374">
        <ele>72</ele>
        <time>2018-05-31T12:00:31Z</time>
      </trkpt>
      <trkpt lat="44.85429" lon="-0.40363">
        <ele>72</ele>
        <time>2018-05-31T12:01:31Z</time>
      </trkpt>
      <trkpt lat="44.8544" lon="-0.40336">
        <ele>72</ele>
        <time>2018-05-31T12:02:31Z</time>
      </trkpt>
      <trkpt lat="44.85461" lon="-0.40296">
        <ele>72</ele>
        <time>2018-05-31T12:03:31Z</time>
      </trkpt>
      <trkpt lat="44.85486" lon="-0.40254">
        <ele>72</ele>
        <time>2018-05-31T12:04:31Z</time>
      </trkpt>
      <trkpt lat="44.85526" lon="-0.40194">
        <ele>73</ele>
        <time>2018-05-31T12:05:31Z</time>
      </trkpt>
      <trkpt lat="44.85537" lon="-0.40178">
        <ele>73</ele>
        <time>2018-05-31T12:06:31Z</time>
      </trkpt>
      <trkpt lat="44.85563" lon="-0.40113">
        <ele>72</ele>
        <time>2018-05-31T12:07:31Z</time>
      </trkpt>
      <trkpt lat="44.85576" lon="-0.40097">
        <ele>71</ele>
        <time>2018-05-31T12:08:31Z</time>
      </trkpt>
      <trkpt lat="44.85581" lon="-0.40102">
        <ele>72</ele>
        <time>2018-05-31T12:09:31Z</time>
      </trkpt>
      <trkpt lat="44.85583" lon="-0.40103">
        <ele>72</ele>
        <time>2018-05-31T12:10:31Z</time>
      </trkpt>
      <trkpt lat="44.85601" lon="-0.40105">
        <ele>71</ele>
        <time>2018-05-31T12:11:31Z</time>
      </trkpt>
      <trkpt lat="44.85656" lon="-0.40108">
        <ele>68</ele>
        <time>2018-05-31T12:12:31Z</time>
      </trkpt>
      <trkpt lat="44.85681" lon="-0.40111">
        <ele>66</ele>
        <time>2018-05-31T12:13:31Z</time>
      </trkpt>
      <trkpt lat="44.85717" lon="-0.40113">
        <ele>65</ele>
        <time>2018-05-31T12:14:31Z</time>
      </trkpt>
      <trkpt lat="44.85746" lon="-0.40115">
        <ele>64</ele>
        <time>2018-05-31T12:15:31Z</time>
      </trkpt>
      <trkpt lat="44.85847" lon="-0.40121">
        <ele>65</ele>
        <time>2018-05-31T12:16:31Z</time>
      </trkpt>
      <trkpt lat="44.85854" lon="-0.40122">
        <ele>66</ele>
        <time>2018-05-31T12:17:31Z</time>
      </trkpt>
      <trkpt lat="44.85875" lon="-0.40124">
        <ele>67</ele>
        <time>2018-05-31T12:18:31Z</time>
      </trkpt>
      <trkpt lat="44.859" lon="-0.40124">
        <ele>68</ele>
        <time>2018-05-31T12:19:31Z</time>
      </trkpt>
      <trkpt lat="44.85926" lon="-0.40126">
        <ele>69</ele>
        <time>2018-05-31T12:20:31Z</time>
      </trkpt>
      <trkpt lat="44.8594" lon="-0.40127">
        <ele>70</ele>
        <time>2018-05-31T12:21:31Z</time>
      </trkpt>
      <trkpt lat="44.85951" lon="-0.40128">
        <ele>71</ele>
        <time>2018-05-31T12:22:31Z</time>
      </trkpt>
      <trkpt lat="44.8596" lon="-0.40128">
        <ele>72</ele>
        <time>2018-05-31T12:23:31Z</time>
      </trkpt>
      <trkpt lat="44.85963" lon="-0.40127">
        <ele>72</ele>
        <time>2018-05-31T12:24:31Z</time>
      </trkpt>
      <trkpt lat="44.85967" lon="-0.40117">
        <ele>72</ele>
        <time>2018-05-31T12:25:31Z</time>
      </trkpt>
      <trkpt lat="44.8597" lon="-0.40093">
        <ele>73</ele>
        <time>2018-05-31T12:26:31Z</time>
      </trkpt>
      <trkpt lat="44.85972" lon="-0.40048">
        <ele>74</ele>
        <time>2018-05-31T12:27:31Z</time>
      </trkpt>
      <trkpt lat="44.85972" lon="-0.39996">
        <ele>75</ele>
        <time>2018-05-31T12:28:31Z</time>
      </trkpt>
      <trkpt lat="44.85973" lon="-0.39955">
        <ele>76</ele>
        <time>2018-05-31T12:29:31Z</time>
      </trkpt>
      <trkpt lat="44.85974" lon="-0.39931">
        <ele>77</ele>
        <time>2018-05-31T12:30:31Z</time>
      </trkpt>
      <trkpt lat="44.85975" lon="-0.39919">
        <ele>78</ele>
        <time>2018-05-31T12:31:31Z</time>
      </trkpt>
      <trkpt lat="44.85976" lon="-0.39864">
        <ele>80</ele>
        <time>2018-05-31T12:32:31Z</time>
      </trkpt>
      <trkpt lat="44.85979" lon="-0.39803">
        <ele>83</ele>
        <time>2018-05-31T12:33:31Z</time>
      </trkpt>
      <trkpt lat="44.85982" lon="-0.39781">
        <ele>83</ele>
        <time>2018-05-31T12:34:31Z</time>
      </trkpt>
      <trkpt lat="44.85995" lon="-0.3976">
        <ele>84</ele>
        <time>2018-05-31T12:35:31Z</time>
      </trkpt>
      <trkpt lat="44.8601" lon="-0.39744">
        <ele>84</ele>
        <time>2018-05-31T12:36:31Z</time>
      </trkpt>
      <trkpt lat="44.86035" lon="-0.39697">
        <ele>83</ele>
        <time>2018-05-31T12:37:31Z</time>
      </trkpt>
      <trkpt lat="44.86013" lon="-0.39543">
        <ele>83</ele>
        <time>2018-05-31T12:38:31Z</time>
      </trkpt>
      <trkpt lat="44.86012" lon="-0.39536">
        <ele>83</ele>
        <time>2018-05-31T12:39:31Z</time>
      </trkpt>
      <trkpt lat="44.86004" lon="-0.39488">
        <ele>83</ele>
        <time>2018-05-31T12:40:31Z</time>
      </trkpt>
      <trkpt lat="44.86001" lon="-0.3947">
        <ele>82</ele>
        <time>2018-05-31T12:41:31Z</time>
      </trkpt>
      <trkpt lat="44.85987" lon="-0.39398">
        <ele>81</ele>
        <time>2018-05-31T12:42:31Z</time>
      </trkpt>
      <trkpt lat="44.85976" lon="-0.39322">
        <ele>80</ele>
        <time>2018-05-31T12:43:31Z</time>
      </trkpt>
      <trkpt lat="44.85957" lon="-0.39247">
        <ele>82</ele>
        <time>2018-05-31T12:44:31Z</time>
      </trkpt>
      <trkpt lat="44.85952" lon="-0.39231">
        <ele>82</ele>
        <time>2018-05-31T12:45:31Z</time>
      </trkpt>
      <trkpt lat="44.85949" lon="-0.39215">
        <ele>83</ele>
        <time>2018-05-31T12:46:31Z</time>
      </trkpt>
      <trkpt lat="44.85948" lon="-0.3921">
        <ele>83</ele>
        <time>2018-05-31T12:47:31Z</time>
      </trkpt>
      <trkpt lat="44.85953" lon="-0.39199">
        <ele>84</ele>
        <time>2018-05-31T12:48:31Z</time>
      </trkpt>
      <trkpt lat="44.85969" lon="-0.39177">
        <ele>85</ele>
        <time>2018-05-31T12:49:31Z</time>
      </trkpt>
      <trkpt lat="44.85984" lon="-0.39152">
        <ele>86</ele>
        <time>2018-05-31T12:50:31Z</time>
      </trkpt>
      <trkpt lat="44.85994" lon="-0.39141">
        <ele>86</ele>
        <time>2018-05-31T12:51:31Z</time>
      </trkpt>
      <trkpt lat="44.85998" lon="-0.39138">
        <ele>86</ele>
        <time>2018-05-31T12:52:31Z</time>
      </trkpt>
      <trkpt lat="44.86014" lon="-0.39129">
        <ele>85</ele>
        <time>2018-05-31T12:53:31Z</time>
      </trkpt>
      <trkpt lat="44.86018" lon="-0.39128">
        <ele>85</ele>
        <time>2018-05-31T12:54:31Z</time>
      </trkpt>
      <trkpt lat="44.86039" lon="-0.39125">
        <ele>83</ele>
        <time>2018-05-31T12:55:31Z</time>
      </trkpt>
      <trkpt lat="44.86054" lon="-0.39121">
        <ele>82</ele>
        <time>2018-05-31T12:56:31Z</time>
      </trkpt>
      <trkpt lat="44.86093" lon="-0.39094">
        <ele>80</ele>
        <time>2018-05-31T12:57:31Z</time>
      </trkpt>
      <trkpt lat="44.8613" lon="-0.39066">
        <ele>77</ele>
        <time>2018-05-31T12:58:31Z</time>
      </trkpt>
      <trkpt lat="44.86144" lon="-0.39061">
        <ele>76</ele>
        <time>2018-05-31T12:59:31Z</time>
      </trkpt>
      <trkpt lat="44.86156" lon="-0.39029">
        <ele>76</ele>
        <time>2018-05-31T13:00:31Z</time>
      </trkpt>
      <trkpt lat="44.86156" lon="-0.3898">
        <ele>75</ele>
        <time>2018-05-31T13:01:31Z</time>
      </trkpt>
      <trkpt lat="44.8615" lon="-0.38819">
        <ele>73</ele>
        <time>2018-05-31T13:02:31Z</time>
      </trkpt>
      <trkpt lat="44.86152" lon="-0.38742">
        <ele>73</ele>
        <time>2018-05-31T13:03:31Z</time>
      </trkpt>
      <trkpt lat="44.86161" lon="-0.38675">
        <ele>74</ele>
        <time>2018-05-31T13:04:31Z</time>
      </trkpt>
      <trkpt lat="44.8614" lon="-0.38658">
        <ele>75</ele>
        <time>2018-05-31T13:05:31Z</time>
      </trkpt>
      <trkpt lat="44.86073" lon="-0.38615">
        <ele>76</ele>
        <time>2018-05-31T13:06:31Z</time>
      </trkpt>
      <trkpt lat="44.86024" lon="-0.38601">
        <ele>78</ele>
        <time>2018-05-31T13:07:31Z</time>
      </trkpt>
      <trkpt lat="44.86021" lon="-0.38586">
        <ele>78</ele>
        <time>2018-05-31T13:08:31Z</time>
      </trkpt>
      <trkpt lat="44.86019" lon="-0.38578">
        <ele>78</ele>
        <time>2018-05-31T13:09:31Z</time>
      </trkpt>
      <trkpt lat="44.85998" lon="-0.38559">
        <ele>79</ele>
        <time>2018-05-31T13:10:31Z</time>
      </trkpt>
      <trkpt lat="44.85987" lon="-0.3856">
        <ele>79</ele>
        <time>2018-05-31T13:11:31Z</time>
      </trkpt>
      <trkpt lat="44.85969" lon="-0.38574">
        <ele>79</ele>
        <time>2018-05-31T13:12:31Z</time>
      </trkpt>
      <trkpt lat="44.85947" lon="-0.38629">
        <ele>78</ele>
        <time>2018-05-31T13:13:31Z</time>
      </trkpt>
      <trkpt lat="44.85943" lon="-0.38633">
        <ele>78</ele>
        <time>2018-05-31T13:14:31Z</time>
      </trkpt>
      <trkpt lat="44.8593" lon="-0.38639">
        <ele>78</ele>
        <time>2018-05-31T13:15:31Z</time>
      </trkpt>
      <trkpt lat="44.85899" lon="-0.3865">
        <ele>78</ele>
        <time>2018-05-31T13:16:31Z</time>
      </trkpt>
      <trkpt lat="44.85875" lon="-0.38658">
        <ele>77</ele>
        <time>2018-05-31T13:17:31Z</time>
      </trkpt>
      <trkpt lat="44.85771" lon="-0.38694">
        <ele>71</ele>
        <time>2018-05-31T13:18:31Z</time>
      </trkpt>
      <trkpt lat="44.85756" lon="-0.387">
        <ele>70</ele>
        <time>2018-05-31T13:19:31Z</time>
      </trkpt>
      <trkpt lat="44.85749" lon="-0.38704">
        <ele>69</ele>
        <time>2018-05-31T13:20:31Z</time>
      </trkpt>
      <trkpt lat="44.8574" lon="-0.38717">
        <ele>68</ele>
        <time>2018-05-31T13:21:31Z</time>
      </trkpt>
      <trkpt lat="44.85731" lon="-0.38742">
        <ele>67</ele>
        <time>2018-05-31T13:22:31Z</time>
      </trkpt>
      <trkpt lat="44.85727" lon="-0.38749">
        <ele>67</ele>
        <time>2018-05-31T13:23:31Z</time>
      </trkpt>
      <trkpt lat="44.85712" lon="-0.38765">
        <ele>66</ele>
        <time>2018-05-31T13:24:31Z</time>
      </trkpt>
      <trkpt lat="44.85706" lon="-0.3877">
        <ele>66</ele>
        <time>2018-05-31T13:25:31Z</time>
      </trkpt>
      <trkpt lat="44.85688" lon="-0.38783">
        <ele>65</ele>
        <time>2018-05-31T13:26:31Z</time>
      </trkpt>
      <trkpt lat="44.85683" lon="-0.38787">
        <ele>64</ele>
        <time>2018-05-31T13:27:31Z</time>
      </trkpt>
      <trkpt lat="44.85678" lon="-0.38793">
        <ele>64</ele>
        <time>2018-05-31T13:28:31Z</time>
      </trkpt>
      <trkpt lat="44.85667" lon="-0.38833">
        <ele>63</ele>
        <time>2018-05-31T13:29:31Z</time>
      </trkpt>
      <trkpt lat="44.85669" lon="-0.38865">
        <ele>64</ele>
        <time>2018-05-31T13:30:31Z</time>
      </trkpt>
      <trkpt lat="44.85656" lon="-0.38895">
        <ele>65</ele>
        <time>2018-05-31T13:31:31Z</time>
      </trkpt>
      <trkpt lat="44.85633" lon="-0.38937">
        <ele>67</ele>
        <time>2018-05-31T13:32:31Z</time>
      </trkpt>
      <trkpt lat="44.85633" lon="-0.3894">
        <ele>67</ele>
        <time>2018-05-31T13:33:31Z</time>
      </trkpt>
      <trkpt lat="44.85635" lon="-0.38959">
        <ele>68</ele>
        <time>2018-05-31T13:34:31Z</time>
      </trkpt>
      <trkpt lat="44.85639" lon="-0.38977">
        <ele>70</ele>
        <time>2018-05-31T13:35:31Z</time>
      </trkpt>
      <trkpt lat="44.85641" lon="-0.38989">
        <ele>70</ele>
        <time>2018-05-31T13:36:31Z</time>
      </trkpt>
      <trkpt lat="44.85641" lon="-0.38991">
        <ele>70</ele>
        <time>2018-05-31T13:37:31Z</time>
      </trkpt>
      <trkpt lat="44.8563" lon="-0.39004">
        <ele>71</ele>
        <time>2018-05-31T13:38:31Z</time>
      </trkpt>
      <trkpt lat="44.85627" lon="-0.39007">
        <ele>71</ele>
        <time>2018-05-31T13:39:31Z</time>
      </trkpt>
      <trkpt lat="44.85626" lon="-0.39008">
        <ele>71</ele>
        <time>2018-05-31T13:40:31Z</time>
      </trkpt>
      <trkpt lat="44.85623" lon="-0.39018">
        <ele>71</ele>
        <time>2018-05-31T13:41:31Z</time>
      </trkpt>
      <trkpt lat="44.8561" lon="-0.39035">
        <ele>71</ele>
        <time>2018-05-31T13:42:31Z</time>
      </trkpt>
      <trkpt lat="44.85604" lon="-0.39042">
        <ele>71</ele>
        <time>2018-05-31T13:43:31Z</time>
      </trkpt>
      <trkpt lat="44.85599" lon="-0.39057">
        <ele>72</ele>
        <time>2018-05-31T13:44:31Z</time>
      </trkpt>
      <trkpt lat="44.85598" lon="-0.39059">
        <ele>72</ele>
        <time>2018-05-31T13:45:31Z</time>
      </trkpt>
      <trkpt lat="44.85588" lon="-0.39083">
        <ele>72</ele>
        <time>2018-05-31T13:46:31Z</time>
      </trkpt>
      <trkpt lat="44.85559" lon="-0.39109">
        <ele>71</ele>
        <time>2018-05-31T13:47:31Z</time>
      </trkpt>
      <trkpt lat="44.85545" lon="-0.39117">
        <ele>71</ele>
        <time>2018-05-31T13:48:31Z</time>
      </trkpt>
      <trkpt lat="44.85541" lon="-0.39122">
        <ele>71</ele>
        <time>2018-05-31T13:49:31Z</time>
      </trkpt>
      <trkpt lat="44.85539" lon="-0.39123">
        <ele>71</ele>
        <time>2018-05-31T13:50:31Z</time>
      </trkpt>
      <trkpt lat="44.85527" lon="-0.39118">
        <ele>70</ele>
        <time>2018-05-31T13:51:31Z</time>
      </trkpt>
      <trkpt lat="44.85525" lon="-0.39116">
        <ele>70</ele>
        <time>2018-05-31T13:52:31Z</time>
      </trkpt>
      <trkpt lat="44.85502" lon="-0.39103">
        <ele>69</ele>
        <time>2018-05-31T13:53:31Z</time>
      </trkpt>
      <trkpt lat="44.85494" lon="-0.39093">
        <ele>69</ele>
        <time>2018-05-31T13:54:31Z</time>
      </trkpt>
      <trkpt lat="44.8549" lon="-0.39088">
        <ele>69</ele>
        <time>2018-05-31T13:55:31Z</time>
      </trkpt>
      <trkpt lat="44.85484" lon="-0.39085">
        <ele>69</ele>
        <time>2018-05-31T13:56:31Z</time>
      </trkpt>
      <trkpt lat="44.85472" lon="-0.39085">
        <ele>68</ele>
        <time>2018-05-31T13:57:31Z</time>
      </trkpt>
      <trkpt lat="44.85467" lon="-0.39083">
        <ele>68</ele>
        <time>2018-05-31T13:58:31Z</time>
      </trkpt>
      <trkpt lat="44.85464" lon="-0.39081">
        <ele>68</ele>
        <time>2018-05-31T13:59:31Z</time>
      </trkpt>
      <trkpt lat="44.8545" lon="-0.39066">
        <ele>67</ele>
        <time>2018-05-31T14:00:31Z</time>
      </trkpt>
      <trkpt lat="44.85447" lon="-0.39063">
        <ele>67</ele>
        <time>2018-05-31T14:01:31Z</time>
      </trkpt>
      <trkpt lat="44.85444" lon="-0.39051">
        <ele>67</ele>
        <time>2018-05-31T14:02:31Z</time>
      </trkpt>
      <trkpt lat="44.85439" lon="-0.39041">
        <ele>67</ele>
        <time>2018-05-31T14:03:31Z</time>
      </trkpt>
      <trkpt lat="44.85428" lon="-0.39027">
        <ele>66</ele>
        <time>2018-05-31T14:04:31Z</time>
      </trkpt>
      <trkpt lat="44.85408" lon="-0.39014">
        <ele>66</ele>
        <time>2018-05-31T14:05:31Z</time>
      </trkpt>
      <trkpt lat="44.85395" lon="-0.39">
        <ele>65</ele>
        <time>2018-05-31T14:06:31Z</time>
      </trkpt>
      <trkpt lat="44.85392" lon="-0.39">
        <ele>65</ele>
        <time>2018-05-31T14:07:31Z</time>
      </trkpt>
      <trkpt lat="44.85382" lon="-0.38998">
        <ele>64</ele>
        <time>2018-05-31T14:08:31Z</time>
      </trkpt>
      <trkpt lat="44.85378" lon="-0.3899">
        <ele>64</ele>
        <time>2018-05-31T14:09:31Z</time>
      </trkpt>
      <trkpt lat="44.85375" lon="-0.38983">
        <ele>63</ele>
        <time>2018-05-31T14:10:31Z</time>
      </trkpt>
      <trkpt lat="44.85355" lon="-0.38962">
        <ele>62</ele>
        <time>2018-05-31T14:11:31Z</time>
      </trkpt>
      <trkpt lat="44.85345" lon="-0.38958">
        <ele>61</ele>
        <time>2018-05-31T14:12:31Z</time>
      </trkpt>
      <trkpt lat="44.85342" lon="-0.38957">
        <ele>61</ele>
        <time>2018-05-31T14:13:31Z</time>
      </trkpt>
      <trkpt lat="44.85334" lon="-0.38952">
        <ele>61</ele>
        <time>2018-05-31T14:14:31Z</time>
      </trkpt>
      <trkpt lat="44.85323" lon="-0.38942">
        <ele>60</ele>
        <time>2018-05-31T14:15:31Z</time>
      </trkpt>
      <trkpt lat="44.85303" lon="-0.38924">
        <ele>58</ele>
        <time>2018-05-31T14:16:31Z</time>
      </trkpt>
      <trkpt lat="44.85296" lon="-0.38917">
        <ele>57</ele>
        <time>2018-05-31T14:17:31Z</time>
      </trkpt>
      <trkpt lat="44.85295" lon="-0.3891">
        <ele>57</ele>
        <time>2018-05-31T14:18:31Z</time>
      </trkpt>
      <trkpt lat="44.85294" lon="-0.38906">
        <ele>57</ele>
        <time>2018-05-31T14:19:31Z</time>
      </trkpt>
      <trkpt lat="44.85292" lon="-0.38898">
        <ele>56</ele>
        <time>2018-05-31T14:20:31Z</time>
      </trkpt>
      <trkpt lat="44.85286" lon="-0.38877">
        <ele>55</ele>
        <time>2018-05-31T14:21:31Z</time>
      </trkpt>
      <trkpt lat="44.85283" lon="-0.38864">
        <ele>54</ele>
        <time>2018-05-31T14:22:31Z</time>
      </trkpt>
      <trkpt lat="44.85272" lon="-0.38862">
        <ele>53</ele>
        <time>2018-05-31T14:23:31Z</time>
      </trkpt>
      <trkpt lat="44.8527" lon="-0.38862">
        <ele>53</ele>
        <time>2018-05-31T14:24:31Z</time>
      </trkpt>
      <trkpt lat="44.85261" lon="-0.38852">
        <ele>52</ele>
        <time>2018-05-31T14:25:31Z</time>
      </trkpt>
      <trkpt lat="44.85253" lon="-0.38848">
        <ele>52</ele>
        <time>2018-05-31T14:26:31Z</time>
      </trkpt>
      <trkpt lat="44.85252" lon="-0.38849">
        <ele>52</ele>
        <time>2018-05-31T14:27:31Z</time>
      </trkpt>
      <trkpt lat="44.85251" lon="-0.38849">
        <ele>52</ele>
        <time>2018-05-31T14:28:31Z</time>
      </trkpt>
      <trkpt lat="44.85254" lon="-0.38858">
        <ele>52</ele>
        <time>2018-05-31T14:29:31Z</time>
      </trkpt>
      <trkpt lat="44.85246" lon="-0.38874">
        <ele>52</ele>
        <time>2018-05-31T14:30:31Z</time>
      </trkpt>
      <trkpt lat="44.85246" lon="-0.38899">
        <ele>53</ele>
        <time>2018-05-31T14:31:31Z</time>
      </trkpt>
      <trkpt lat="44.85246" lon="-0.38902">
        <ele>53</ele>
        <time>2018-05-31T14:32:31Z</time>
      </trkpt>
      <trkpt lat="44.85242" lon="-0.38915">
        <ele>53</ele>
        <time>2018-05-31T14:33:31Z</time>
      </trkpt>
      <trkpt lat="44.85238" lon="-0.38921">
        <ele>52</ele>
        <time>2018-05-31T14:34:31Z</time>
      </trkpt>
      <trkpt lat="44.85229" lon="-0.38927">
        <ele>50</ele>
        <time>2018-05-31T14:35:31Z</time>
      </trkpt>
      <trkpt lat="44.85222" lon="-0.38932">
        <ele>49</ele>
        <time>2018-05-31T14:36:31Z</time>
      </trkpt>
      <trkpt lat="44.85218" lon="-0.38931">
        <ele>48</ele>
        <time>2018-05-31T14:37:31Z</time>
      </trkpt>
      <trkpt lat="44.85216" lon="-0.3893">
        <ele>48</ele>
        <time>2018-05-31T14:38:31Z</time>
      </trkpt>
      <trkpt lat="44.85215" lon="-0.38927">
        <ele>48</ele>
        <time>2018-05-31T14:39:31Z</time>
      </trkpt>
      <trkpt lat="44.85212" lon="-0.38894">
        <ele>47</ele>
        <time>2018-05-31T14:40:31Z</time>
      </trkpt>
      <trkpt lat="44.85209" lon="-0.38871">
        <ele>46</ele>
        <time>2018-05-31T14:41:31Z</time>
      </trkpt>
      <trkpt lat="44.85205" lon="-0.38867">
        <ele>45</ele>
        <time>2018-05-31T14:42:31Z</time>
      </trkpt>
      <trkpt lat="44.85195" lon="-0.38853">
        <ele>44</ele>
        <time>2018-05-31T14:43:31Z</time>
      </trkpt>
      <trkpt lat="44.85193" lon="-0.38851">
        <ele>44</ele>
        <time>2018-05-31T14:44:31Z</time>
      </trkpt>
      <trkpt lat="44.85191" lon="-0.38851">
        <ele>43</ele>
        <time>2018-05-31T14:45:31Z</time>
      </trkpt>
      <trkpt lat="44.85188" lon="-0.38854">
        <ele>43</ele>
        <time>2018-05-31T14:46:31Z</time>
      </trkpt>
      <trkpt lat="44.85187" lon="-0.38857">
        <ele>43</ele>
        <time>2018-05-31T14:47:31Z</time>
      </trkpt>
      <trkpt lat="44.85183" lon="-0.38864">
        <ele>42</ele>
        <time>2018-05-31T14:48:31Z</time>
      </trkpt>
      <trkpt lat="44.8518" lon="-0.38874">
        <ele>42</ele>
        <time>2018-05-31T14:49:31Z</time>
      </trkpt>
      <trkpt lat="44.85179" lon="-0.38876">
        <ele>41</ele>
        <time>2018-05-31T14:50:31Z</time>
      </trkpt>
      <trkpt lat="44.85178" lon="-0.38878">
        <ele>41</ele>
        <time>2018-05-31T14:51:31Z</time>
      </trkpt>
      <trkpt lat="44.85184" lon="-0.38958">
        <ele>42</ele>
        <time>2018-05-31T14:52:31Z</time>
      </trkpt>
      <trkpt lat="44.85088" lon="-0.38994">
        <ele>31</ele>
        <time>2018-05-31T14:53:31Z</time>
      </trkpt>
      <trkpt lat="44.85082" lon="-0.38996">
        <ele>31</ele>
        <time>2018-05-31T14:54:31Z</time>
      </trkpt>
      <trkpt lat="44.85078" lon="-0.38996">
        <ele>31</ele>
        <time>2018-05-31T14:55:31Z</time>
      </trkpt>
      <trkpt lat="44.85076" lon="-0.38963">
        <ele>31</ele>
        <time>2018-05-31T14:56:31Z</time>
      </trkpt>
      <trkpt lat="44.8506" lon="-0.38897">
        <ele>32</ele>
        <time>2018-05-31T14:57:31Z</time>
      </trkpt>
      <trkpt lat="44.85009" lon="-0.38896">
        <ele>33</ele>
        <time>2018-05-31T14:58:31Z</time>
      </trkpt>
      <trkpt lat="44.84991" lon="-0.38897">
        <ele>34</ele>
        <time>2018-05-31T14:59:31Z</time>
      </trkpt>
      <trkpt lat="44.84942" lon="-0.38897">
        <ele>38</ele>
        <time>2018-05-31T15:00:31Z</time>
      </trkpt>
      <trkpt lat="44.84919" lon="-0.38898">
        <ele>39</ele>
        <time>2018-05-31T15:01:31Z</time>
      </trkpt>
      <trkpt lat="44.84872" lon="-0.38898">
        <ele>40</ele>
        <time>2018-05-31T15:02:31Z</time>
      </trkpt>
      <trkpt lat="44.84846" lon="-0.38904">
        <ele>41</ele>
        <time>2018-05-31T15:03:31Z</time>
      </trkpt>
      <trkpt lat="44.84843" lon="-0.38915">
        <ele>42</ele>
        <time>2018-05-31T15:04:31Z</time>
      </trkpt>
      <trkpt lat="44.84844" lon="-0.38928">
        <ele>42</ele>
        <time>2018-05-31T15:05:31Z</time>
      </trkpt>
      <trkpt lat="44.84845" lon="-0.38947">
        <ele>44</ele>
        <time>2018-05-31T15:06:31Z</time>
      </trkpt>
      <trkpt lat="44.84848" lon="-0.39017">
        <ele>47</ele>
        <time>2018-05-31T15:07:31Z</time>
      </trkpt>
      <trkpt lat="44.84849" lon="-0.39048">
        <ele>48</ele>
        <time>2018-05-31T15:08:31Z</time>
      </trkpt>
      <trkpt lat="44.84846" lon="-0.39055">
        <ele>48</ele>
        <time>2018-05-31T15:09:31Z</time>
      </trkpt>
      <trkpt lat="44.84806" lon="-0.39064">
        <ele>51</ele>
        <time>2018-05-31T15:10:31Z</time>
      </trkpt>
      <trkpt lat="44.84763" lon="-0.39079">
        <ele>54</ele>
        <time>2018-05-31T15:11:31Z</time>
      </trkpt>
      <trkpt lat="44.84746" lon="-0.39087">
        <ele>55</ele>
        <time>2018-05-31T15:12:31Z</time>
      </trkpt>
      <trkpt lat="44.84736" lon="-0.39091">
        <ele>56</ele>
        <time>2018-05-31T15:13:31Z</time>
      </trkpt>
      <trkpt lat="44.84729" lon="-0.39094">
        <ele>57</ele>
        <time>2018-05-31T15:14:31Z</time>
      </trkpt>
      <trkpt lat="44.84716" lon="-0.39099">
        <ele>58</ele>
        <time>2018-05-31T15:15:31Z</time>
      </trkpt>
      <trkpt lat="44.84715" lon="-0.39101">
        <ele>58</ele>
        <time>2018-05-31T15:16:31Z</time>
      </trkpt>
      <trkpt lat="44.84712" lon="-0.39105">
        <ele>58</ele>
        <time>2018-05-31T15:17:31Z</time>
      </trkpt>
      <trkpt lat="44.84706" lon="-0.3911">
        <ele>58</ele>
        <time>2018-05-31T15:18:31Z</time>
      </trkpt>
      <trkpt lat="44.84692" lon="-0.3911">
        <ele>59</ele>
        <time>2018-05-31T15:19:31Z</time>
      </trkpt>
      <trkpt lat="44.84672" lon="-0.39109">
        <ele>61</ele>
        <time>2018-05-31T15:20:31Z</time>
      </trkpt>
      <trkpt lat="44.84651" lon="-0.39106">
        <ele>61</ele>
        <time>2018-05-31T15:21:31Z</time>
      </trkpt>
      <trkpt lat="44.84596" lon="-0.39101">
        <ele>62</ele>
        <time>2018-05-31T15:22:31Z</time>
      </trkpt>
      <trkpt lat="44.84541" lon="-0.39095">
        <ele>64</ele>
        <time>2018-05-31T15:23:31Z</time>
      </trkpt>
      <trkpt lat="44.84515" lon="-0.39092">
        <ele>65</ele>
        <time>2018-05-31T15:24:31Z</time>
      </trkpt>
      <trkpt lat="44.84497" lon="-0.39103">
        <ele>67</ele>
        <time>2018-05-31T15:25:31Z</time>
      </trkpt>
      <trkpt lat="44.84493" lon="-0.39121">
        <ele>67</ele>
        <time>2018-05-31T15:26:31Z</time>
      </trkpt>
      <trkpt lat="44.84489" lon="-0.39136">
        <ele>68</ele>
        <time>2018-05-31T15:27:31Z</time>
      </trkpt>
      <trkpt lat="44.84486" lon="-0.39152">
        <ele>68</ele>
        <time>2018-05-31T15:28:31Z</time>
      </trkpt>
      <trkpt lat="44.84468" lon="-0.39177">
        <ele>70</ele>
        <time>2018-05-31T15:29:31Z</time>
      </trkpt>
      <trkpt lat="44.84455" lon="-0.39182">
        <ele>70</ele>
        <time>2018-05-31T15:30:31Z</time>
      </trkpt>
      <trkpt lat="44.84451" lon="-0.3919">
        <ele>71</ele>
        <time>2018-05-31T15:31:31Z</time>
      </trkpt>
      <trkpt lat="44.84443" lon="-0.39192">
        <ele>71</ele>
        <time>2018-05-31T15:32:31Z</time>
      </trkpt>
      <trkpt lat="44.84425" lon="-0.39202">
        <ele>72</ele>
        <time>2018-05-31T15:33:31Z</time>
      </trkpt>
      <trkpt lat="44.84422" lon="-0.39224">
        <ele>73</ele>
        <time>2018-05-31T15:34:31Z</time>
      </trkpt>
      <trkpt lat="44.84422" lon="-0.39244">
        <ele>74</ele>
        <time>2018-05-31T15:35:31Z</time>
      </trkpt>
      <trkpt lat="44.84427" lon="-0.39305">
        <ele>74</ele>
        <time>2018-05-31T15:36:31Z</time>
      </trkpt>
      <trkpt lat="44.84431" lon="-0.3936">
        <ele>74</ele>
        <time>2018-05-31T15:37:31Z</time>
      </trkpt>
      <trkpt lat="44.84439" lon="-0.39365">
        <ele>74</ele>
        <time>2018-05-31T15:38:31Z</time>
      </trkpt>
      <trkpt lat="44.84447" lon="-0.39366">
        <ele>74</ele>
        <time>2018-05-31T15:39:31Z</time>
      </trkpt>
      <trkpt lat="44.84492" lon="-0.3937">
        <ele>73</ele>
        <time>2018-05-31T15:40:31Z</time>
      </trkpt>
      <trkpt lat="44.84498" lon="-0.39397">
        <ele>74</ele>
        <time>2018-05-31T15:41:31Z</time>
      </trkpt>
      <trkpt lat="44.84496" lon="-0.39409">
        <ele>74</ele>
        <time>2018-05-31T15:42:31Z</time>
      </trkpt>
      <trkpt lat="44.84488" lon="-0.39479">
        <ele>72</ele>
        <time>2018-05-31T15:43:31Z</time>
      </trkpt>
      <trkpt lat="44.84484" lon="-0.39505">
        <ele>70</ele>
        <time>2018-05-31T15:44:31Z</time>
      </trkpt>
      <trkpt lat="44.84481" lon="-0.39522">
        <ele>69</ele>
        <time>2018-05-31T15:45:31Z</time>
      </trkpt>
      <trkpt lat="44.84479" lon="-0.39529">
        <ele>68</ele>
        <time>2018-05-31T15:46:31Z</time>
      </trkpt>
      <trkpt lat="44.84476" lon="-0.39534">
        <ele>68</ele>
        <time>2018-05-31T15:47:31Z</time>
      </trkpt>
      <trkpt lat="44.84447" lon="-0.39545">
        <ele>67</ele>
        <time>2018-05-31T15:48:31Z</time>
      </trkpt>
      <trkpt lat="44.84438" lon="-0.39544">
        <ele>67</ele>
        <time>2018-05-31T15:49:31Z</time>
      </trkpt>
      <trkpt lat="44.84433" lon="-0.39545">
        <ele>66</ele>
        <time>2018-05-31T15:50:31Z</time>
      </trkpt>
      <trkpt lat="44.84398" lon="-0.39546">
        <ele>65</ele>
        <time>2018-05-31T15:51:31Z</time>
      </trkpt>
      <trkpt lat="44.84393" lon="-0.39545">
        <ele>65</ele>
        <time>2018-05-31T15:52:31Z</time>
      </trkpt>
      <trkpt lat="44.8437" lon="-0.39523">
        <ele>65</ele>
        <time>2018-05-31T15:53:31Z</time>
      </trkpt>
      <trkpt lat="44.8436" lon="-0.39512">
        <ele>65</ele>
        <time>2018-05-31T15:54:31Z</time>
      </trkpt>
      <trkpt lat="44.8434" lon="-0.3951">
        <ele>63</ele>
        <time>2018-05-31T15:55:31Z</time>
      </trkpt>
      <trkpt lat="44.84318" lon="-0.39511">
        <ele>63</ele>
        <time>2018-05-31T15:56:31Z</time>
      </trkpt>
      <trkpt lat="44.84312" lon="-0.39511">
        <ele>63</ele>
        <time>2018-05-31T15:57:31Z</time>
      </trkpt>
      <trkpt lat="44.84307" lon="-0.39513">
        <ele>63</ele>
        <time>2018-05-31T15:58:31Z</time>
      </trkpt>
      <trkpt lat="44.84292" lon="-0.39537">
        <ele>63</ele>
        <time>2018-05-31T15:59:31Z</time>
      </trkpt>
      <trkpt lat="44.84277" lon="-0.39556">
        <ele>63</ele>
        <time>2018-05-31T16:00:31Z</time>
      </trkpt>
    </trkseg>
  </trk>
</gpx>